Alderson, West Virginia
Current Conditions -  °F | °C
As of 8:15 PM on Monday 26 Jan 2015 (Local Time) from KLWB Reporting Station
Overcast Overcast  
Wind Chill: 18°   Ceiling: 1800
Heat Index: 27°   Visibility: 10mi
Dew Point: 22°   Wind: 9mph
Humidity: 80%   Direction: 300°WNW
Pressure: 29.76"   Gusts: NA
Location:  37.73°N, 80.64°W
Report Text: KLWB 270115Z AUTO 30008KT 260V320 10SM OVC018 M03/M06 A2976 RMK AO2 T10261057
Loading
Personal Weather Stations






























Interactive Weather Map New forecast layout! Learn more

10-Day Weather Forecast

Advertisements
Track Severe Weather on mobile